Terminal Aerodrome Forecast
Issued by NWS Albany, NY

Home | Current Version | Previous Version | Text Only | Print | Product List | Glossary On
Versions: 1 2 3 4 5 6 7 8 9 10 11 12 13 14 15 16 17 18 19 20 21 22 23 24 25 26
000
FTUS41 KALY 241200 AAA
TAFPOU
TAF AMD
KPOU 241223Z 2412/2512 16010G20KT P6SM VCSH SCT025 OVC040
      WS020/18045KT
      TEMPO 2412/2414 5SM -SHRA BR BKN015 OVC030
     FM241400 18012G17KT P6SM BKN025 OVC040
     FM241800 20013G21KT P6SM SCT030 BKN050
     FM242200 22006KT 5SM BR BKN015
     FM250800 25004KT 6SM BR SCT070=

USA.gov is the U.S. government's official web portal to all federal, state and local government web resources and services.